sensor_id;sensor_type;location;lat;lon;timestamp;P1;durP1;ratioP1;P2;durP2;ratioP2
24715;SDS011;12822;50.124;8.678;2024-02-21T00:02:22;22.40;;;5.75;;
24715;SDS011;12822;50.124;8.678;2024-02-21T00:04:48;22.77;;;6.22;;
24715;SDS011;12822;50.124;8.678;2024-02-21T00:07:14;19.27;;;6.35;;
24715;SDS011;12822;50.124;8.678;2024-02-21T00:09:40;19.75;;;5.93;;
24715;SDS011;12822;50.124;8.678;2024-02-21T00:12:06;19.02;;;6.05;;
24715;SDS011;12822;50.124;8.678;2024-02-21T00:14:32;21.90;;;6.07;;
24715;SDS011;12822;50.124;8.678;2024-02-21T00:16:58;21.75;;;6.50;;
24715;SDS011;12822;50.124;8.678;2024-02-21T00:19:25;23.15;;;6.80;;
24715;SDS011;12822;50.124;8.678;2024-02-21T00:21:50;24.02;;;6.47;;
24715;SDS011;12822;50.124;8.678;2024-02-21T00:24:16;22.95;;;6.53;;
24715;SDS011;12822;50.124;8.678;2024-02-21T00:26:42;25.95;;;8.02;;
24715;SDS011;12822;50.124;8.678;2024-02-21T00:29:08;23.80;;;7.03;;
24715;SDS011;12822;50.124;8.678;2024-02-21T00:31:34;26.10;;;6.93;;
24715;SDS011;12822;50.124;8.678;2024-02-21T00:34:00;24.80;;;6.65;;
24715;SDS011;12822;50.124;8.678;2024-02-21T00:36:26;23.40;;;6.90;;
24715;SDS011;12822;50.124;8.678;2024-02-21T00:38:52;28.02;;;7.72;;
24715;SDS011;12822;50.124;8.678;2024-02-21T00:41:18;32.60;;;8.50;;
24715;SDS011;12822;50.124;8.678;2024-02-21T00:43:44;21.75;;;7.10;;
24715;SDS011;12822;50.124;8.678;2024-02-21T00:46:10;25.92;;;8.15;;
24715;SDS011;12822;50.124;8.678;2024-02-21T00:48:36;27.77;;;7.63;;
24715;SDS011;12822;50.124;8.678;2024-02-21T00:51:02;25.48;;;7.63;;
24715;SDS011;12822;50.124;8.678;2024-02-21T00:53:28;26.40;;;7.90;;
24715;SDS011;12822;50.124;8.678;2024-02-21T00:55:54;30.23;;;8.23;;
24715;SDS011;12822;50.124;8.678;2024-02-21T00:58:21;24.88;;;8.32;;
24715;SDS011;12822;50.124;8.678;2024-02-21T01:00:47;29.23;;;7.88;;
24715;SDS011;12822;50.124;8.678;2024-02-21T01:03:13;26.80;;;9.00;;
24715;SDS011;12822;50.124;8.678;2024-02-21T01:05:39;32.13;;;9.10;;
24715;SDS011;12822;50.124;8.678;2024-02-21T01:08:05;24.75;;;7.72;;
24715;SDS011;12822;50.124;8.678;2024-02-21T01:10:31;30.50;;;9.82;;
24715;SDS011;12822;50.124;8.678;2024-02-21T01:12:57;30.02;;;9.50;;
24715;SDS011;12822;50.124;8.678;2024-02-21T01:15:23;34.30;;;8.73;;
24715;SDS011;12822;50.124;8.678;2024-02-21T01:17:49;26.63;;;8.88;;
24715;SDS011;12822;50.124;8.678;2024-02-21T01:20:19;27.33;;;9.32;;
24715;SDS011;12822;50.124;8.678;2024-02-21T01:22:45;35.50;;;8.70;;
24715;SDS011;12822;50.124;8.678;2024-02-21T01:25:11;26.67;;;8.05;;
24715;SDS011;12822;50.124;8.678;2024-02-21T01:27:37;30.17;;;8.50;;
24715;SDS011;12822;50.124;8.678;2024-02-21T01:30:03;30.08;;;8.55;;
24715;SDS011;12822;50.124;8.678;2024-02-21T01:32:30;27.92;;;8.65;;
24715;SDS011;12822;50.124;8.678;2024-02-21T01:34:56;30.92;;;8.57;;
24715;SDS011;12822;50.124;8.678;2024-02-21T01:37:22;24.38;;;8.02;;
24715;SDS011;12822;50.124;8.678;2024-02-21T01:39:48;24.70;;;9.38;;
24715;SDS011;12822;50.124;8.678;2024-02-21T01:42:15;25.50;;;9.05;;
24715;SDS011;12822;50.124;8.678;2024-02-21T01:44:41;24.00;;;8.45;;
24715;SDS011;12822;50.124;8.678;2024-02-21T01:47:07;24.15;;;8.20;;
24715;SDS011;12822;50.124;8.678;2024-02-21T01:49:33;22.30;;;8.70;;
24715;SDS011;12822;50.124;8.678;2024-02-21T01:51:59;19.83;;;7.07;;
24715;SDS011;12822;50.124;8.678;2024-02-21T01:54:26;24.98;;;8.40;;
24715;SDS011;12822;50.124;8.678;2024-02-21T01:56:55;28.83;;;8.10;;
24715;SDS011;12822;50.124;8.678;2024-02-21T01:59:22;25.17;;;8.27;;
24715;SDS011;12822;50.124;8.678;2024-02-21T02:01:48;23.10;;;8.30;;
24715;SDS011;12822;50.124;8.678;2024-02-21T02:04:15;19.45;;;7.57;;
24715;SDS011;12822;50.124;8.678;2024-02-21T02:06:41;21.13;;;7.57;;
24715;SDS011;12822;50.124;8.678;2024-02-21T02:09:08;28.52;;;8.30;;
24715;SDS011;12822;50.124;8.678;2024-02-21T02:11:34;21.50;;;7.88;;
24715;SDS011;12822;50.124;8.678;2024-02-21T02:14:01;25.85;;;8.55;;
24715;SDS011;12822;50.124;8.678;2024-02-21T02:16:28;24.55;;;8.63;;
24715;SDS011;12822;50.124;8.678;2024-02-21T02:18:54;19.58;;;7.95;;
24715;SDS011;12822;50.124;8.678;2024-02-21T02:21:26;26.92;;;8.50;;
24715;SDS011;12822;50.124;8.678;2024-02-21T02:23:54;22.52;;;7.20;;
24715;SDS011;12822;50.124;8.678;2024-02-21T02:26:21;22.15;;;7.78;;
24715;SDS011;12822;50.124;8.678;2024-02-21T02:28:47;24.17;;;7.82;;
24715;SDS011;12822;50.124;8.678;2024-02-21T02:31:13;25.98;;;8.25;;
24715;SDS011;12822;50.124;8.678;2024-02-21T02:33:39;23.27;;;8.20;;
24715;SDS011;12822;50.124;8.678;2024-02-21T02:36:05;26.67;;;8.23;;
24715;SDS011;12822;50.124;8.678;2024-02-21T02:38:32;28.73;;;7.68;;
24715;SDS011;12822;50.124;8.678;2024-02-21T02:40:58;24.70;;;7.72;;
24715;SDS011;12822;50.124;8.678;2024-02-21T02:43:24;22.85;;;7.13;;
24715;SDS011;12822;50.124;8.678;2024-02-21T02:45:50;19.20;;;7.65;;
24715;SDS011;12822;50.124;8.678;2024-02-21T02:48:16;26.50;;;7.05;;
24715;SDS011;12822;50.124;8.678;2024-02-21T02:50:43;27.77;;;8.80;;
24715;SDS011;12822;50.124;8.678;2024-02-21T02:53:09;24.33;;;7.75;;
24715;SDS011;12822;50.124;8.678;2024-02-21T02:55:35;26.48;;;7.75;;
24715;SDS011;12822;50.124;8.678;2024-02-21T02:58:01;29.30;;;8.75;;
24715;SDS011;12822;50.124;8.678;2024-02-21T03:00:27;29.52;;;8.27;;
24715;SDS011;12822;50.124;8.678;2024-02-21T03:02:53;20.25;;;7.80;;
24715;SDS011;12822;50.124;8.678;2024-02-21T03:05:20;21.90;;;8.07;;
24715;SDS011;12822;50.124;8.678;2024-02-21T03:07:46;22.08;;;7.50;;
24715;SDS011;12822;50.124;8.678;2024-02-21T03:10:13;25.35;;;7.70;;
24715;SDS011;12822;50.124;8.678;2024-02-21T03:12:41;18.95;;;7.82;;
24715;SDS011;12822;50.124;8.678;2024-02-21T03:15:07;27.05;;;7.82;;
24715;SDS011;12822;50.124;8.678;2024-02-21T03:17:34;22.50;;;7.97;;
24715;SDS011;12822;50.124;8.678;2024-02-21T03:20:02;21.45;;;7.38;;
24715;SDS011;12822;50.124;8.678;2024-02-21T03:22:33;20.73;;;7.30;;
24715;SDS011;12822;50.124;8.678;2024-02-21T03:24:59;26.08;;;7.88;;
24715;SDS011;12822;50.124;8.678;2024-02-21T03:27:26;24.15;;;7.93;;
24715;SDS011;12822;50.124;8.678;2024-02-21T03:29:52;21.40;;;8.00;;
24715;SDS011;12822;50.124;8.678;2024-02-21T03:32:18;24.73;;;8.90;;
24715;SDS011;12822;50.124;8.678;2024-02-21T03:34:44;27.10;;;9.52;;
24715;SDS011;12822;50.124;8.678;2024-02-21T03:37:10;29.85;;;8.68;;
24715;SDS011;12822;50.124;8.678;2024-02-21T03:39:38;26.40;;;8.70;;
24715;SDS011;12822;50.124;8.678;2024-02-21T03:42:04;29.65;;;10.75;;
24715;SDS011;12822;50.124;8.678;2024-02-21T03:44:31;28.88;;;10.90;;
24715;SDS011;12822;50.124;8.678;2024-02-21T03:46:57;24.08;;;10.10;;
24715;SDS011;12822;50.124;8.678;2024-02-21T03:49:27;30.33;;;10.50;;
24715;SDS011;12822;50.124;8.678;2024-02-21T03:51:53;31.63;;;10.85;;
24715;SDS011;12822;50.124;8.678;2024-02-21T03:54:19;26.98;;;11.68;;
24715;SDS011;12822;50.124;8.678;2024-02-21T03:56:45;34.72;;;12.63;;
24715;SDS011;12822;50.124;8.678;2024-02-21T03:59:14;39.65;;;12.13;;
24715;SDS011;12822;50.124;8.678;2024-02-21T04:01:40;28.08;;;11.38;;
24715;SDS011;12822;50.124;8.678;2024-02-21T04:04:06;32.33;;;11.32;;
24715;SDS011;12822;50.124;8.678;2024-02-21T04:06:32;32.97;;;11.40;;
24715;SDS011;12822;50.124;8.678;2024-02-21T04:08:58;33.42;;;12.25;;
24715;SDS011;12822;50.124;8.678;2024-02-21T04:11:24;29.83;;;11.52;;
24715;SDS011;12822;50.124;8.678;2024-02-21T04:13:50;28.25;;;10.38;;
24715;SDS011;12822;50.124;8.678;2024-02-21T04:16:17;30.90;;;11.73;;
24715;SDS011;12822;50.124;8.678;2024-02-21T04:18:43;37.65;;;12.07;;
24715;SDS011;12822;50.124;8.678;2024-02-21T04:21:09;27.35;;;11.43;;
24715;SDS011;12822;50.124;8.678;2024-02-21T04:23:36;31.40;;;12.13;;
24715;SDS011;12822;50.124;8.678;2024-02-21T04:26:02;34.67;;;13.35;;
24715;SDS011;12822;50.124;8.678;2024-02-21T04:28:28;30.90;;;12.32;;
24715;SDS011;12822;50.124;8.678;2024-02-21T04:30:54;27.40;;;12.13;;
24715;SDS011;12822;50.124;8.678;2024-02-21T04:33:20;26.17;;;10.48;;
24715;SDS011;12822;50.124;8.678;2024-02-21T04:35:46;29.88;;;10.85;;
24715;SDS011;12822;50.124;8.678;2024-02-21T04:38:13;30.83;;;11.20;;
24715;SDS011;12822;50.124;8.678;2024-02-21T04:40:40;26.08;;;10.25;;
24715;SDS011;12822;50.124;8.678;2024-02-21T04:43:06;30.98;;;10.18;;
24715;SDS011;12822;50.124;8.678;2024-02-21T04:45:32;31.65;;;11.25;;
24715;SDS011;12822;50.124;8.678;2024-02-21T04:47:58;28.13;;;10.32;;
24715;SDS011;12822;50.124;8.678;2024-02-21T04:50:24;24.17;;;10.52;;
24715;SDS011;12822;50.124;8.678;2024-02-21T04:52:50;32.58;;;10.68;;
24715;SDS011;12822;50.124;8.678;2024-02-21T04:55:16;34.15;;;10.40;;
24715;SDS011;12822;50.124;8.678;2024-02-21T04:57:42;21.95;;;9.63;;
24715;SDS011;12822;50.124;8.678;2024-02-21T05:00:09;27.20;;;9.93;;
24715;SDS011;12822;50.124;8.678;2024-02-21T05:02:35;28.48;;;10.77;;
24715;SDS011;12822;50.124;8.678;2024-02-21T05:05:01;37.60;;;10.55;;
24715;SDS011;12822;50.124;8.678;2024-02-21T05:07:27;33.85;;;9.95;;
24715;SDS011;12822;50.124;8.678;2024-02-21T05:09:54;20.35;;;8.70;;
24715;SDS011;12822;50.124;8.678;2024-02-21T05:12:20;25.17;;;9.15;;
24715;SDS011;12822;50.124;8.678;2024-02-21T05:14:46;22.20;;;9.23;;
24715;SDS011;12822;50.124;8.678;2024-02-21T05:17:12;25.85;;;8.93;;
24715;SDS011;12822;50.124;8.678;2024-02-21T05:19:38;22.63;;;9.35;;
24715;SDS011;12822;50.124;8.678;2024-02-21T05:22:05;26.35;;;9.35;;
24715;SDS011;12822;50.124;8.678;2024-02-21T05:24:31;23.98;;;8.73;;
24715;SDS011;12822;50.124;8.678;2024-02-21T05:26:57;31.33;;;9.65;;
24715;SDS011;12822;50.124;8.678;2024-02-21T05:29:23;24.58;;;9.00;;
24715;SDS011;12822;50.124;8.678;2024-02-21T05:34:19;23.92;;;9.25;;
24715;SDS011;12822;50.124;8.678;2024-02-21T05:36:45;26.80;;;9.80;;
24715;SDS011;12822;50.124;8.678;2024-02-21T05:39:12;25.00;;;9.27;;
24715;SDS011;12822;50.124;8.678;2024-02-21T05:41:38;27.35;;;9.90;;
24715;SDS011;12822;50.124;8.678;2024-02-21T05:44:04;28.77;;;9.73;;
24715;SDS011;12822;50.124;8.678;2024-02-21T05:46:30;30.25;;;9.32;;
24715;SDS011;12822;50.124;8.678;2024-02-21T05:48:56;20.00;;;8.75;;
24715;SDS011;12822;50.124;8.678;2024-02-21T05:51:22;26.42;;;10.07;;
24715;SDS011;12822;50.124;8.678;2024-02-21T05:53:48;28.20;;;9.30;;
24715;SDS011;12822;50.124;8.678;2024-02-21T05:56:14;26.25;;;9.23;;
24715;SDS011;12822;50.124;8.678;2024-02-21T05:58:41;28.17;;;9.23;;
24715;SDS011;12822;50.124;8.678;2024-02-21T06:01:07;25.48;;;9.43;;
24715;SDS011;12822;50.124;8.678;2024-02-21T06:03:33;24.38;;;8.80;;
24715;SDS011;12822;50.124;8.678;2024-02-21T06:06:00;22.17;;;9.32;;
24715;SDS011;12822;50.124;8.678;2024-02-21T06:08:26;30.67;;;10.07;;
24715;SDS011;12822;50.124;8.678;2024-02-21T06:10:52;33.83;;;10.68;;
24715;SDS011;12822;50.124;8.678;2024-02-21T06:13:20;21.05;;;9.73;;
24715;SDS011;12822;50.124;8.678;2024-02-21T06:15:49;31.17;;;9.93;;
24715;SDS011;12822;50.124;8.678;2024-02-21T06:18:18;29.73;;;10.52;;
24715;SDS011;12822;50.124;8.678;2024-02-21T06:20:44;18.75;;;9.15;;
24715;SDS011;12822;50.124;8.678;2024-02-21T06:23:15;26.70;;;9.38;;
24715;SDS011;12822;50.124;8.678;2024-02-21T06:25:42;26.35;;;8.88;;
24715;SDS011;12822;50.124;8.678;2024-02-21T06:28:08;23.35;;;9.05;;
24715;SDS011;12822;50.124;8.678;2024-02-21T06:30:35;25.92;;;8.82;;
24715;SDS011;12822;50.124;8.678;2024-02-21T06:33:01;24.83;;;8.88;;
24715;SDS011;12822;50.124;8.678;2024-02-21T06:35:28;19.55;;;8.43;;
24715;SDS011;12822;50.124;8.678;2024-02-21T06:37:54;30.85;;;9.35;;
24715;SDS011;12822;50.124;8.678;2024-02-21T06:40:21;21.15;;;9.40;;
24715;SDS011;12822;50.124;8.678;2024-02-21T06:42:47;29.50;;;9.32;;
24715;SDS011;12822;50.124;8.678;2024-02-21T06:45:14;28.70;;;9.93;;
24715;SDS011;12822;50.124;8.678;2024-02-21T06:47:40;29.02;;;10.10;;
24715;SDS011;12822;50.124;8.678;2024-02-21T06:50:07;26.88;;;9.30;;
24715;SDS011;12822;50.124;8.678;2024-02-21T06:52:33;24.55;;;9.38;;
24715;SDS011;12822;50.124;8.678;2024-02-21T06:54:59;30.63;;;9.52;;
24715;SDS011;12822;50.124;8.678;2024-02-21T06:57:26;26.02;;;9.98;;
24715;SDS011;12822;50.124;8.678;2024-02-21T06:59:52;28.23;;;10.45;;
24715;SDS011;12822;50.124;8.678;2024-02-21T07:02:18;26.20;;;10.80;;
24715;SDS011;12822;50.124;8.678;2024-02-21T07:04:44;29.02;;;11.05;;
24715;SDS011;12822;50.124;8.678;2024-02-21T07:07:10;26.50;;;11.00;;
24715;SDS011;12822;50.124;8.678;2024-02-21T07:09:36;31.23;;;11.50;;
24715;SDS011;12822;50.124;8.678;2024-02-21T07:12:02;35.67;;;11.60;;
24715;SDS011;12822;50.124;8.678;2024-02-21T07:14:29;29.80;;;10.27;;
24715;SDS011;12822;50.124;8.678;2024-02-21T07:16:56;28.70;;;10.40;;
24715;SDS011;12822;50.124;8.678;2024-02-21T07:19:22;29.60;;;10.05;;
24715;SDS011;12822;50.124;8.678;2024-02-21T07:21:48;26.08;;;9.23;;
24715;SDS011;12822;50.124;8.678;2024-02-21T07:24:14;26.17;;;9.07;;
24715;SDS011;12822;50.124;8.678;2024-02-21T07:26:41;26.88;;;7.95;;
24715;SDS011;12822;50.124;8.678;2024-02-21T07:29:10;22.38;;;8.18;;
24715;SDS011;12822;50.124;8.678;2024-02-21T07:31:43;20.77;;;7.25;;
24715;SDS011;12822;50.124;8.678;2024-02-21T07:34:09;22.90;;;6.82;;
24715;SDS011;12822;50.124;8.678;2024-02-21T07:36:35;24.70;;;7.07;;
24715;SDS011;12822;50.124;8.678;2024-02-21T07:39:04;21.20;;;6.65;;
24715;SDS011;12822;50.124;8.678;2024-02-21T07:41:30;22.52;;;6.20;;
24715;SDS011;12822;50.124;8.678;2024-02-21T07:43:57;20.17;;;6.65;;
24715;SDS011;12822;50.124;8.678;2024-02-21T07:46:23;20.33;;;6.05;;
24715;SDS011;12822;50.124;8.678;2024-02-21T07:48:52;23.20;;;6.75;;
24715;SDS011;12822;50.124;8.678;2024-02-21T07:51:18;23.00;;;6.88;;
24715;SDS011;12822;50.124;8.678;2024-02-21T07:53:46;17.17;;;5.70;;
24715;SDS011;12822;50.124;8.678;2024-02-21T07:56:14;22.60;;;6.05;;
24715;SDS011;12822;50.124;8.678;2024-02-21T07:58:40;17.60;;;6.13;;
24715;SDS011;12822;50.124;8.678;2024-02-21T08:01:10;24.33;;;6.47;;
24715;SDS011;12822;50.124;8.678;2024-02-21T08:03:36;17.50;;;6.38;;
24715;SDS011;12822;50.124;8.678;2024-02-21T08:06:02;17.45;;;6.35;;
24715;SDS011;12822;50.124;8.678;2024-02-21T08:08:29;18.73;;;5.90;;
24715;SDS011;12822;50.124;8.678;2024-02-21T08:10:55;24.88;;;6.47;;
24715;SDS011;12822;50.124;8.678;2024-02-21T08:13:21;16.73;;;6.45;;
24715;SDS011;12822;50.124;8.678;2024-02-21T08:15:47;18.33;;;6.05;;
24715;SDS011;12822;50.124;8.678;2024-02-21T08:18:13;19.52;;;6.28;;
24715;SDS011;12822;50.124;8.678;2024-02-21T08:20:39;18.95;;;5.97;;
24715;SDS011;12822;50.124;8.678;2024-02-21T08:23:04;23.00;;;6.18;;
24715;SDS011;12822;50.124;8.678;2024-02-21T08:25:30;20.95;;;5.60;;
24715;SDS011;12822;50.124;8.678;2024-02-21T08:27:59;20.38;;;5.45;;
24715;SDS011;12822;50.124;8.678;2024-02-21T08:30:25;18.67;;;6.03;;
24715;SDS011;12822;50.124;8.678;2024-02-21T08:32:52;23.05;;;5.40;;
24715;SDS011;12822;50.124;8.678;2024-02-21T08:35:19;21.52;;;5.88;;
24715;SDS011;12822;50.124;8.678;2024-02-21T08:37:47;22.90;;;5.65;;
24715;SDS011;12822;50.124;8.678;2024-02-21T08:40:13;19.63;;;6.50;;
24715;SDS011;12822;50.124;8.678;2024-02-21T08:42:42;19.25;;;5.80;;
24715;SDS011;12822;50.124;8.678;2024-02-21T08:45:08;22.23;;;6.22;;
24715;SDS011;12822;50.124;8.678;2024-02-21T08:47:35;21.02;;;5.85;;
24715;SDS011;12822;50.124;8.678;2024-02-21T08:50:03;16.42;;;6.07;;
24715;SDS011;12822;50.124;8.678;2024-02-21T08:52:30;20.38;;;5.82;;
24715;SDS011;12822;50.124;8.678;2024-02-21T08:54:56;14.98;;;5.47;;
24715;SDS011;12822;50.124;8.678;2024-02-21T08:57:22;21.35;;;6.47;;
24715;SDS011;12822;50.124;8.678;2024-02-21T08:59:48;17.30;;;6.65;;
24715;SDS011;12822;50.124;8.678;2024-02-21T09:02:14;20.17;;;6.20;;
24715;SDS011;12822;50.124;8.678;2024-02-21T09:04:43;20.65;;;6.18;;
24715;SDS011;12822;50.124;8.678;2024-02-21T09:07:10;24.80;;;6.40;;
24715;SDS011;12822;50.124;8.678;2024-02-21T09:09:36;20.85;;;5.72;;
24715;SDS011;12822;50.124;8.678;2024-02-21T09:12:04;18.55;;;5.50;;
24715;SDS011;12822;50.124;8.678;2024-02-21T09:14:33;16.20;;;5.05;;
24715;SDS011;12822;50.124;8.678;2024-02-21T09:16:59;21.23;;;5.25;;
24715;SDS011;12822;50.124;8.678;2024-02-21T09:19:26;16.02;;;4.82;;
24715;SDS011;12822;50.124;8.678;2024-02-21T09:21:52;19.45;;;4.90;;
24715;SDS011;12822;50.124;8.678;2024-02-21T09:24:18;17.65;;;5.75;;
24715;SDS011;12822;50.124;8.678;2024-02-21T09:26:44;20.40;;;5.05;;
24715;SDS011;12822;50.124;8.678;2024-02-21T09:29:10;18.98;;;5.50;;
24715;SDS011;12822;50.124;8.678;2024-02-21T09:31:36;19.20;;;4.75;;
24715;SDS011;12822;50.124;8.678;2024-02-21T09:34:03;15.60;;;5.28;;
24715;SDS011;12822;50.124;8.678;2024-02-21T09:36:30;13.60;;;4.57;;
24715;SDS011;12822;50.124;8.678;2024-02-21T09:38:56;21.55;;;5.45;;
24715;SDS011;12822;50.124;8.678;2024-02-21T09:41:27;15.00;;;5.32;;
24715;SDS011;12822;50.124;8.678;2024-02-21T09:43:53;15.57;;;4.72;;
24715;SDS011;12822;50.124;8.678;2024-02-21T09:46:23;15.18;;;4.95;;
24715;SDS011;12822;50.124;8.678;2024-02-21T09:51:34;21.42;;;5.28;;
24715;SDS011;12822;50.124;8.678;2024-02-21T09:54:02;22.17;;;5.65;;
24715;SDS011;12822;50.124;8.678;2024-02-21T09:56:28;19.35;;;4.93;;
24715;SDS011;12822;50.124;8.678;2024-02-21T09:58:55;13.38;;;4.68;;
24715;SDS011;12822;50.124;8.678;2024-02-21T10:01:21;13.80;;;4.00;;
24715;SDS011;12822;50.124;8.678;2024-02-21T10:03:47;22.73;;;4.90;;
24715;SDS011;12822;50.124;8.678;2024-02-21T10:06:14;16.02;;;4.25;;
24715;SDS011;12822;50.124;8.678;2024-02-21T10:08:40;18.88;;;4.55;;
24715;SDS011;12822;50.124;8.678;2024-02-21T10:11:06;14.52;;;4.03;;
24715;SDS011;12822;50.124;8.678;2024-02-21T10:13:34;14.98;;;3.85;;
24715;SDS011;12822;50.124;8.678;2024-02-21T10:16:06;14.57;;;4.60;;
24715;SDS011;12822;50.124;8.678;2024-02-21T10:18:36;16.85;;;4.20;;
24715;SDS011;12822;50.124;8.678;2024-02-21T10:21:05;12.25;;;3.83;;
24715;SDS011;12822;50.124;8.678;2024-02-21T10:26:30;17.30;;;5.03;;
24715;SDS011;12822;50.124;8.678;2024-02-21T10:28:56;15.45;;;4.15;;
24715;SDS011;12822;50.124;8.678;2024-02-21T10:31:23;14.15;;;4.15;;
24715;SDS011;12822;50.124;8.678;2024-02-21T10:34:01;10.27;;;4.10;;
24715;SDS011;12822;50.124;8.678;2024-02-21T10:36:28;15.35;;;4.32;;
24715;SDS011;12822;50.124;8.678;2024-02-21T10:38:54;12.95;;;4.10;;
24715;SDS011;12822;50.124;8.678;2024-02-21T10:41:21;17.33;;;4.82;;
24715;SDS011;12822;50.124;8.678;2024-02-21T10:43:51;16.77;;;4.70;;
24715;SDS011;12822;50.124;8.678;2024-02-21T10:46:19;16.98;;;4.63;;
24715;SDS011;12822;50.124;8.678;2024-02-21T10:48:45;14.73;;;4.95;;
24715;SDS011;12822;50.124;8.678;2024-02-21T10:51:19;20.95;;;5.32;;
24715;SDS011;12822;50.124;8.678;2024-02-21T10:53:53;16.45;;;4.15;;
24715;SDS011;12822;50.124;8.678;2024-02-21T10:56:28;16.75;;;4.40;;
24715;SDS011;12822;50.124;8.678;2024-02-21T10:58:55;19.77;;;4.60;;
24715;SDS011;12822;50.124;8.678;2024-02-21T11:01:23;13.80;;;4.03;;
24715;SDS011;12822;50.124;8.678;2024-02-21T11:03:52;15.07;;;4.35;;
24715;SDS011;12822;50.124;8.678;2024-02-21T11:06:19;14.18;;;4.53;;
24715;SDS011;12822;50.124;8.678;2024-02-21T11:08:46;20.45;;;4.57;;
24715;SDS011;12822;50.124;8.678;2024-02-21T11:11:13;15.43;;;4.30;;
24715;SDS011;12822;50.124;8.678;2024-02-21T11:13:46;13.77;;;4.43;;
24715;SDS011;12822;50.124;8.678;2024-02-21T11:16:21;23.90;;;5.47;;
24715;SDS011;12822;50.124;8.678;2024-02-21T11:18:47;15.23;;;4.88;;
24715;SDS011;12822;50.124;8.678;2024-02-21T11:21:13;14.32;;;4.72;;
24715;SDS011;12822;50.124;8.678;2024-02-21T11:23:39;15.35;;;4.75;;
24715;SDS011;12822;50.124;8.678;2024-02-21T11:26:06;15.32;;;4.90;;
24715;SDS011;12822;50.124;8.678;2024-02-21T11:28:32;11.85;;;4.38;;
24715;SDS011;12822;50.124;8.678;2024-02-21T11:31:08;23.65;;;4.85;;
24715;SDS011;12822;50.124;8.678;2024-02-21T11:33:35;18.88;;;4.90;;
24715;SDS011;12822;50.124;8.678;2024-02-21T11:36:01;17.83;;;4.57;;
24715;SDS011;12822;50.124;8.678;2024-02-21T11:38:29;20.58;;;4.75;;
24715;SDS011;12822;50.124;8.678;2024-02-21T11:40:55;17.15;;;4.90;;
24715;SDS011;12822;50.124;8.678;2024-02-21T11:43:21;15.55;;;4.55;;
24715;SDS011;12822;50.124;8.678;2024-02-21T11:45:47;15.85;;;4.30;;
24715;SDS011;12822;50.124;8.678;2024-02-21T11:48:13;16.50;;;4.90;;
24715;SDS011;12822;50.124;8.678;2024-02-21T11:50:40;18.80;;;4.88;;
24715;SDS011;12822;50.124;8.678;2024-02-21T11:53:06;14.93;;;4.30;;
24715;SDS011;12822;50.124;8.678;2024-02-21T11:55:32;15.73;;;4.55;;
24715;SDS011;12822;50.124;8.678;2024-02-21T11:57:59;18.05;;;4.43;;
24715;SDS011;12822;50.124;8.678;2024-02-21T12:00:25;19.85;;;4.75;;
24715;SDS011;12822;50.124;8.678;2024-02-21T12:02:51;15.50;;;4.68;;
24715;SDS011;12822;50.124;8.678;2024-02-21T12:05:20;21.83;;;4.95;;
24715;SDS011;12822;50.124;8.678;2024-02-21T12:07:47;16.05;;;5.05;;
24715;SDS011;12822;50.124;8.678;2024-02-21T12:10:13;16.58;;;4.65;;
24715;SDS011;12822;50.124;8.678;2024-02-21T12:12:39;17.55;;;4.05;;
24715;SDS011;12822;50.124;8.678;2024-02-21T12:15:05;22.60;;;5.13;;
24715;SDS011;12822;50.124;8.678;2024-02-21T12:17:32;16.88;;;4.57;;
24715;SDS011;12822;50.124;8.678;2024-02-21T12:19:59;17.42;;;4.95;;
24715;SDS011;12822;50.124;8.678;2024-02-21T12:22:25;15.95;;;5.05;;
24715;SDS011;12822;50.124;8.678;2024-02-21T12:24:53;22.25;;;4.93;;
24715;SDS011;12822;50.124;8.678;2024-02-21T12:27:19;17.60;;;4.90;;
24715;SDS011;12822;50.124;8.678;2024-02-21T12:29:47;18.23;;;4.95;;
24715;SDS011;12822;50.124;8.678;2024-02-21T12:32:13;20.52;;;4.63;;
24715;SDS011;12822;50.124;8.678;2024-02-21T12:34:39;19.13;;;5.00;;
24715;SDS011;12822;50.124;8.678;2024-02-21T12:37:05;18.92;;;5.32;;
24715;SDS011;12822;50.124;8.678;2024-02-21T12:39:31;13.63;;;4.55;;
24715;SDS011;12822;50.124;8.678;2024-02-21T12:41:57;21.20;;;4.03;;
24715;SDS011;12822;50.124;8.678;2024-02-21T12:44:23;17.17;;;5.15;;
24715;SDS011;12822;50.124;8.678;2024-02-21T12:46:50;16.42;;;4.88;;
24715;SDS011;12822;50.124;8.678;2024-02-21T12:49:18;19.55;;;4.82;;
24715;SDS011;12822;50.124;8.678;2024-02-21T12:51:44;14.32;;;3.85;;
24715;SDS011;12822;50.124;8.678;2024-02-21T12:54:14;20.80;;;5.47;;
24715;SDS011;12822;50.124;8.678;2024-02-21T12:56:40;17.52;;;4.93;;
24715;SDS011;12822;50.124;8.678;2024-02-21T12:59:06;22.02;;;4.47;;
24715;SDS011;12822;50.124;8.678;2024-02-21T13:01:35;14.65;;;3.65;;
24715;SDS011;12822;50.124;8.678;2024-02-21T13:04:02;18.15;;;4.20;;
24715;SDS011;12822;50.124;8.678;2024-02-21T13:06:28;15.45;;;4.18;;
24715;SDS011;12822;50.124;8.678;2024-02-21T13:08:54;17.25;;;4.10;;
24715;SDS011;12822;50.124;8.678;2024-02-21T13:11:20;17.15;;;4.95;;
24715;SDS011;12822;50.124;8.678;2024-02-21T13:13:46;16.13;;;3.92;;
24715;SDS011;12822;50.124;8.678;2024-02-21T13:16:13;13.93;;;4.43;;
24715;SDS011;12822;50.124;8.678;2024-02-21T13:18:39;21.02;;;4.35;;
24715;SDS011;12822;50.124;8.678;2024-02-21T13:21:07;15.57;;;4.45;;
24715;SDS011;12822;50.124;8.678;2024-02-21T13:23:33;18.70;;;4.32;;
24715;SDS011;12822;50.124;8.678;2024-02-21T13:26:02;17.55;;;4.60;;
24715;SDS011;12822;50.124;8.678;2024-02-21T13:28:28;15.68;;;4.53;;
24715;SDS011;12822;50.124;8.678;2024-02-21T13:30:54;17.73;;;5.13;;
24715;SDS011;12822;50.124;8.678;2024-02-21T13:33:20;17.08;;;4.30;;
24715;SDS011;12822;50.124;8.678;2024-02-21T13:35:46;21.40;;;4.60;;
24715;SDS011;12822;50.124;8.678;2024-02-21T13:38:12;20.30;;;4.50;;
24715;SDS011;12822;50.124;8.678;2024-02-21T13:40:39;17.05;;;4.15;;
24715;SDS011;12822;50.124;8.678;2024-02-21T13:43:07;13.85;;;4.55;;
24715;SDS011;12822;50.124;8.678;2024-02-21T13:45:33;11.90;;;3.50;;
24715;SDS011;12822;50.124;8.678;2024-02-21T13:47:59;16.05;;;3.88;;
24715;SDS011;12822;50.124;8.678;2024-02-21T13:50:29;18.08;;;4.20;;
24715;SDS011;12822;50.124;8.678;2024-02-21T13:52:56;12.73;;;3.75;;
24715;SDS011;12822;50.124;8.678;2024-02-21T13:55:22;11.55;;;3.65;;
24715;SDS011;12822;50.124;8.678;2024-02-21T13:57:51;11.77;;;3.63;;
24715;SDS011;12822;50.124;8.678;2024-02-21T14:00:17;18.50;;;3.60;;
24715;SDS011;12822;50.124;8.678;2024-02-21T14:02:46;11.30;;;3.17;;
24715;SDS011;12822;50.124;8.678;2024-02-21T14:05:12;14.88;;;3.63;;
24715;SDS011;12822;50.124;8.678;2024-02-21T14:07:39;19.88;;;4.15;;
24715;SDS011;12822;50.124;8.678;2024-02-21T14:10:05;17.48;;;3.65;;
24715;SDS011;12822;50.124;8.678;2024-02-21T14:12:31;16.25;;;3.60;;
24715;SDS011;12822;50.124;8.678;2024-02-21T14:14:58;11.07;;;4.20;;
24715;SDS011;12822;50.124;8.678;2024-02-21T14:17:24;10.93;;;3.65;;
24715;SDS011;12822;50.124;8.678;2024-02-21T14:19:50;15.25;;;4.25;;
24715;SDS011;12822;50.124;8.678;2024-02-21T14:22:19;12.65;;;3.38;;
24715;SDS011;12822;50.124;8.678;2024-02-21T14:24:45;11.77;;;3.28;;
24715;SDS011;12822;50.124;8.678;2024-02-21T14:27:12;16.35;;;3.83;;
24715;SDS011;12822;50.124;8.678;2024-02-21T14:29:38;9.50;;;3.28;;
24715;SDS011;12822;50.124;8.678;2024-02-21T14:32:04;11.93;;;3.10;;
24715;SDS011;12822;50.124;8.678;2024-02-21T14:34:33;14.02;;;3.75;;
24715;SDS011;12822;50.124;8.678;2024-02-21T14:36:59;9.55;;;3.38;;
24715;SDS011;12822;50.124;8.678;2024-02-21T14:39:25;14.50;;;3.33;;